EDV5042 CYYZ-KJFK
Flight info
| Callsign | EDV5042 |
|---|---|
| Flight time | 1h 1m |
| Altitude | 35000 |
| Route | KEPTA3 BMPAH DCT AEVON DCT GEE DCT LVZ LENDY8 |
| Aircraft | CRJ9/M-SDFGIRWY/S |
Departure
| Time | 2026-05-06 04:02 |
|---|---|
| Airport | Toronto Pearson International Airport (CYYZ) |
Arrival
| Time | 2026-05-06 05:03 |
|---|---|
| Airport | John F. Kennedy International Airport (KJFK) |
| Time | Latitude | Longitude | Altitude | Speed | Heading |
|---|---|---|---|---|---|
| 2026-05-06 03:33 | 43.68776 | -79.62266 | 560 ft | 0 kts | 102° |
| 2026-05-06 03:50 | 43.68777 | -79.62270 | 560 ft | 2 kts | 104° |
| 2026-05-06 03:50 | 43.68784 | -79.62290 | 565 ft | 2 kts | 140° |
| 2026-05-06 03:50 | 43.68800 | -79.62291 | 559 ft | 2 kts | 203° |
| 2026-05-06 03:50 | 43.68804 | -79.62287 | 566 ft | 0 kts | 209° |
| 2026-05-06 03:55 | 43.68776 | -79.62309 | 564 ft | 6 kts | 210° |
| 2026-05-06 03:55 | 43.68740 | -79.62341 | 560 ft | 6 kts | 220° |
| 2026-05-06 03:55 | 43.68708 | -79.62393 | 560 ft | 9 kts | 234° |
| 2026-05-06 03:56 | 43.68669 | -79.62471 | 560 ft | 12 kts | 234° |
| 2026-05-06 03:56 | 43.68605 | -79.62584 | 565 ft | 16 kts | 226° |
| 2026-05-06 03:56 | 43.68513 | -79.62651 | 562 ft | 15 kts | 203° |
| 2026-05-06 03:56 | 43.68485 | -79.62755 | 560 ft | 13 kts | 310° |
| 2026-05-06 03:57 | 43.68563 | -79.62858 | 564 ft | 19 kts | 317° |
| 2026-05-06 03:57 | 43.68660 | -79.62984 | 560 ft | 19 kts | 316° |
| 2026-05-06 03:57 | 43.68755 | -79.63108 | 560 ft | 19 kts | 316° |
| 2026-05-06 03:57 | 43.68855 | -79.63238 | 563 ft | 20 kts | 316° |
| 2026-05-06 03:58 | 43.68950 | -79.63363 | 562 ft | 18 kts | 316° |
| 2026-05-06 03:58 | 43.69041 | -79.63481 | 562 ft | 18 kts | 318° |
| 2026-05-06 03:58 | 43.69072 | -79.63600 | 568 ft | 13 kts | 247° |
| 2026-05-06 03:58 | 43.69097 | -79.63699 | 565 ft | 12 kts | 317° |
| 2026-05-06 03:59 | 43.69169 | -79.63792 | 562 ft | 19 kts | 316° |
| 2026-05-06 03:59 | 43.69265 | -79.63917 | 561 ft | 19 kts | 316° |
| 2026-05-06 03:59 | 43.69357 | -79.64038 | 560 ft | 13 kts | 315° |
| 2026-05-06 03:59 | 43.69373 | -79.64118 | 562 ft | 7 kts | 254° |
| 2026-05-06 04:00 | 43.69359 | -79.64165 | 564 ft | 3 kts | 244° |
| 2026-05-06 04:00 | 43.69354 | -79.64181 | 568 ft | 1 kts | 244° |
| 2026-05-06 04:00 | 43.69339 | -79.64222 | 569 ft | 9 kts | 243° |
| 2026-05-06 04:00 | 43.69286 | -79.64287 | 571 ft | 12 kts | 191° |
| 2026-05-06 04:01 | 43.69208 | -79.64230 | 563 ft | 15 kts | 135° |
| 2026-05-06 04:01 | 43.69045 | -79.64017 | 564 ft | 63 kts | 136° |
| 2026-05-06 04:01 | 43.68531 | -79.63347 | 563 ft | 137 kts | 137° |
| 2026-05-06 04:01 | 43.67721 | -79.62312 | 732 ft | 170 kts | 138° |
| 2026-05-06 04:02 | 43.66825 | -79.61180 | 1403 ft | 180 kts | 139° |
| 2026-05-06 04:02 | 43.65866 | -79.59960 | 1892 ft | 198 kts | 139° |
| 2026-05-06 04:02 | 43.64803 | -79.58618 | 2359 ft | 214 kts | 139° |
| 2026-05-06 04:02 | 43.63669 | -79.57180 | 2908 ft | 230 kts | 138° |
| 2026-05-06 04:03 | 43.62463 | -79.55595 | 3454 ft | 247 kts | 136° |
| 2026-05-06 04:03 | 43.61257 | -79.53783 | 4001 ft | 265 kts | 130° |
| 2026-05-06 04:03 | 43.60149 | -79.51705 | 4686 ft | 276 kts | 123° |
| 2026-05-06 04:03 | 43.59141 | -79.49399 | 5499 ft | 282 kts | 120° |
| 2026-05-06 04:04 | 43.58196 | -79.47004 | 6359 ft | 286 kts | 120° |
| 2026-05-06 04:04 | 43.57254 | -79.44559 | 7137 ft | 290 kts | 121° |
| 2026-05-06 04:04 | 43.56290 | -79.42092 | 7933 ft | 294 kts | 123° |
| 2026-05-06 04:04 | 43.55279 | -79.39605 | 8755 ft | 297 kts | 126° |
| 2026-05-06 04:05 | 43.54251 | -79.37150 | 9596 ft | 300 kts | 127° |
| 2026-05-06 04:05 | 43.53202 | -79.34652 | 10380 ft | 302 kts | 127° |
| 2026-05-06 04:05 | 43.52147 | -79.32120 | 11154 ft | 305 kts | 127° |
| 2026-05-06 04:05 | 43.51090 | -79.29575 | 11953 ft | 306 kts | 128° |
| 2026-05-06 04:06 | 43.50034 | -79.27038 | 12761 ft | 303 kts | 128° |
| 2026-05-06 04:06 | 43.48982 | -79.24514 | 13348 ft | 307 kts | 128° |
| 2026-05-06 04:06 | 43.47903 | -79.21924 | 13827 ft | 315 kts | 128° |
| 2026-05-06 04:06 | 43.46816 | -79.19309 | 14273 ft | 321 kts | 128° |
| 2026-05-06 04:07 | 43.45699 | -79.16625 | 14732 ft | 326 kts | 128° |
| 2026-05-06 04:07 | 43.44562 | -79.13882 | 15200 ft | 332 kts | 127° |
| 2026-05-06 04:07 | 43.43514 | -79.11114 | 15662 ft | 340 kts | 123° |
| 2026-05-06 04:07 | 43.42527 | -79.08110 | 16144 ft | 346 kts | 120° |
| 2026-05-06 04:08 | 43.41604 | -79.05028 | 16632 ft | 350 kts | 120° |
| 2026-05-06 04:08 | 43.40692 | -79.01937 | 17127 ft | 357 kts | 120° |
| 2026-05-06 04:08 | 43.39740 | -78.98729 | 17649 ft | 367 kts | 120° |
| 2026-05-06 04:08 | 43.38736 | -78.95444 | 18153 ft | 376 kts | 120° |
| 2026-05-06 04:09 | 43.37695 | -78.92088 | 18607 ft | 386 kts | 120° |
| 2026-05-06 04:09 | 43.36630 | -78.88660 | 19071 ft | 396 kts | 120° |
| 2026-05-06 04:09 | 43.35532 | -78.85137 | 19535 ft | 406 kts | 120° |
| 2026-05-06 04:09 | 43.34403 | -78.81525 | 20024 ft | 415 kts | 120° |
| 2026-05-06 04:10 | 43.33248 | -78.77834 | 20495 ft | 425 kts | 120° |
| 2026-05-06 04:10 | 43.32080 | -78.74104 | 20978 ft | 434 kts | 120° |
| 2026-05-06 04:10 | 43.31128 | -78.70097 | 21463 ft | 451 kts | 106° |
| 2026-05-06 04:10 | 43.30834 | -78.65721 | 21915 ft | 468 kts | 92° |
| 2026-05-06 04:11 | 43.31202 | -78.61216 | 22381 ft | 478 kts | 83° |
| 2026-05-06 04:11 | 43.31361 | -78.56641 | 22856 ft | 480 kts | 97° |
| 2026-05-06 04:11 | 43.30811 | -78.52184 | 23327 ft | 479 kts | 111° |
| 2026-05-06 04:11 | 43.29581 | -78.47960 | 23750 ft | 475 kts | 124° |
| 2026-05-06 04:12 | 43.27738 | -78.44231 | 24150 ft | 469 kts | 137° |
| 2026-05-06 04:12 | 43.25406 | -78.41152 | 24569 ft | 464 kts | 147° |
| 2026-05-06 04:12 | 43.22916 | -78.38270 | 24983 ft | 470 kts | 146° |
| 2026-05-06 04:12 | 43.20502 | -78.35162 | 25407 ft | 479 kts | 141° |
| 2026-05-06 04:13 | 43.18237 | -78.31764 | 25826 ft | 487 kts | 137° |
| 2026-05-06 04:13 | 43.16123 | -78.28169 | 26244 ft | 492 kts | 134° |
| 2026-05-06 04:13 | 43.14039 | -78.24428 | 26687 ft | 494 kts | 134° |
| 2026-05-06 04:13 | 43.11926 | -78.20690 | 27111 ft | 495 kts | 135° |
| 2026-05-06 04:14 | 43.09754 | -78.17033 | 27550 ft | 495 kts | 136° |
| 2026-05-06 04:14 | 43.07560 | -78.13398 | 28002 ft | 496 kts | 136° |
| 2026-05-06 04:14 | 43.05370 | -78.09746 | 28462 ft | 496 kts | 135° |
| 2026-05-06 04:14 | 43.03190 | -78.06098 | 28917 ft | 496 kts | 135° |
| 2026-05-06 04:15 | 43.01002 | -78.02457 | 29376 ft | 494 kts | 135° |
| 2026-05-06 04:15 | 42.98866 | -77.98904 | 29836 ft | 487 kts | 136° |
| 2026-05-06 04:15 | 42.96707 | -77.95318 | 30256 ft | 486 kts | 136° |
| 2026-05-06 04:15 | 42.94560 | -77.91761 | 30660 ft | 485 kts | 136° |
| 2026-05-06 04:16 | 42.93140 | -77.89412 | 30940 ft | 484 kts | 136° |
| 2026-05-06 04:16 | 42.90992 | -77.85855 | 31367 ft | 482 kts | 136° |
| 2026-05-06 04:16 | 42.88175 | -77.81169 | 31921 ft | 480 kts | 136° |
| 2026-05-06 04:16 | 42.86060 | -77.77646 | 32349 ft | 478 kts | 136° |
| 2026-05-06 04:17 | 42.83963 | -77.74175 | 32784 ft | 471 kts | 137° |
| 2026-05-06 04:17 | 42.82520 | -77.71973 | 33074 ft | 466 kts | 140° |
| 2026-05-06 04:17 | 42.80290 | -77.68879 | 33509 ft | 453 kts | 143° |
| 2026-05-06 04:17 | 42.78019 | -77.65926 | 33801 ft | 448 kts | 144° |
| 2026-05-06 04:18 | 42.75765 | -77.63003 | 34026 ft | 445 kts | 143° |
| 2026-05-06 04:18 | 42.73564 | -77.60058 | 34237 ft | 441 kts | 142° |
| 2026-05-06 04:18 | 42.71435 | -77.57147 | 34452 ft | 436 kts | 142° |
| 2026-05-06 04:18 | 42.69309 | -77.54238 | 34657 ft | 430 kts | 142° |
| 2026-05-06 04:19 | 42.67204 | -77.51365 | 34776 ft | 427 kts | 142° |
| 2026-05-06 04:19 | 42.65097 | -77.48531 | 34818 ft | 425 kts | 142° |
| 2026-05-06 04:19 | 42.60895 | -77.42882 | 34865 ft | 425 kts | 142° |
| 2026-05-06 04:20 | 42.56644 | -77.37179 | 34914 ft | 434 kts | 142° |
| 2026-05-06 04:20 | 42.52308 | -77.31368 | 34931 ft | 444 kts | 142° |
| 2026-05-06 04:21 | 42.47883 | -77.25454 | 34934 ft | 454 kts | 141° |
| 2026-05-06 04:21 | 42.43342 | -77.19390 | 34918 ft | 461 kts | 141° |
| 2026-05-06 04:22 | 42.38738 | -77.13282 | 34921 ft | 469 kts | 141° |
| 2026-05-06 04:23 | 42.31649 | -77.03858 | 34910 ft | 482 kts | 141° |
| 2026-05-06 04:23 | 42.26816 | -76.97463 | 34906 ft | 490 kts | 141° |
| 2026-05-06 04:24 | 42.21937 | -76.91021 | 34896 ft | 496 kts | 140° |
| 2026-05-06 04:24 | 42.17004 | -76.84521 | 34886 ft | 489 kts | 140° |
| 2026-05-06 04:25 | 42.12113 | -76.78101 | 34883 ft | 489 kts | 140° |
| 2026-05-06 04:25 | 42.07265 | -76.71742 | 34880 ft | 489 kts | 140° |
| 2026-05-06 04:26 | 42.02387 | -76.65361 | 34869 ft | 489 kts | 140° |
| 2026-05-06 04:26 | 41.97499 | -76.58983 | 34858 ft | 489 kts | 140° |
| 2026-05-06 04:27 | 41.92650 | -76.52671 | 34838 ft | 488 kts | 140° |
| 2026-05-06 04:27 | 41.87766 | -76.46321 | 34842 ft | 488 kts | 140° |
| 2026-05-06 04:28 | 41.82862 | -76.39975 | 34843 ft | 488 kts | 140° |
| 2026-05-06 04:28 | 41.78011 | -76.33692 | 34835 ft | 489 kts | 140° |
| 2026-05-06 04:29 | 41.73068 | -76.27318 | 34848 ft | 495 kts | 140° |
| 2026-05-06 04:29 | 41.70609 | -76.24147 | 34838 ft | 484 kts | 140° |
| 2026-05-06 04:29 | 41.68201 | -76.21055 | 34830 ft | 484 kts | 140° |
| 2026-05-06 04:30 | 41.63376 | -76.14857 | 34830 ft | 481 kts | 140° |
| 2026-05-06 04:30 | 41.58540 | -76.08652 | 34829 ft | 480 kts | 140° |
| 2026-05-06 04:31 | 41.53716 | -76.02484 | 34838 ft | 479 kts | 140° |
| 2026-05-06 04:31 | 41.48932 | -75.96379 | 34852 ft | 479 kts | 140° |
| 2026-05-06 04:32 | 41.44113 | -75.90248 | 34856 ft | 478 kts | 140° |
| 2026-05-06 04:32 | 41.39298 | -75.84122 | 34863 ft | 477 kts | 140° |
| 2026-05-06 04:33 | 41.34485 | -75.78023 | 34866 ft | 476 kts | 139° |
| 2026-05-06 04:33 | 41.29734 | -75.71954 | 34864 ft | 477 kts | 135° |
| 2026-05-06 04:34 | 41.25925 | -75.64685 | 34874 ft | 480 kts | 122° |
| 2026-05-06 04:34 | 41.23025 | -75.56686 | 34867 ft | 480 kts | 113° |
| 2026-05-06 04:35 | 41.20481 | -75.48478 | 34918 ft | 480 kts | 114° |
| 2026-05-06 04:35 | 41.17787 | -75.40430 | 34915 ft | 479 kts | 115° |
| 2026-05-06 04:36 | 41.15069 | -75.32340 | 34921 ft | 479 kts | 115° |
| 2026-05-06 04:36 | 41.12327 | -75.24264 | 34912 ft | 478 kts | 115° |
| 2026-05-06 04:37 | 41.09626 | -75.16263 | 34907 ft | 478 kts | 115° |
| 2026-05-06 04:37 | 41.06908 | -75.08234 | 34887 ft | 477 kts | 115° |
| 2026-05-06 04:37 | 41.05539 | -75.04234 | 34481 ft | 471 kts | 115° |
| 2026-05-06 04:38 | 41.04202 | -75.00325 | 33863 ft | 462 kts | 115° |
| 2026-05-06 04:38 | 41.02891 | -74.96469 | 33168 ft | 455 kts | 115° |
| 2026-05-06 04:38 | 41.01594 | -74.92672 | 32497 ft | 452 kts | 116° |
| 2026-05-06 04:38 | 41.00351 | -74.88849 | 31834 ft | 452 kts | 110° |
| 2026-05-06 04:39 | 40.99472 | -74.84901 | 31217 ft | 452 kts | 105° |
| 2026-05-06 04:39 | 40.98802 | -74.80828 | 30569 ft | 453 kts | 101° |
| 2026-05-06 04:39 | 40.98353 | -74.76690 | 29943 ft | 453 kts | 98° |
| 2026-05-06 04:39 | 40.97988 | -74.72551 | 29228 ft | 452 kts | 97° |
| 2026-05-06 04:40 | 40.97614 | -74.68409 | 28523 ft | 451 kts | 98° |
| 2026-05-06 04:40 | 40.97188 | -74.64343 | 27851 ft | 450 kts | 99° |
| 2026-05-06 04:40 | 40.96743 | -74.60295 | 27192 ft | 440 kts | 99° |
| 2026-05-06 04:40 | 40.96304 | -74.56322 | 26524 ft | 432 kts | 100° |
| 2026-05-06 04:41 | 40.95869 | -74.52408 | 25874 ft | 425 kts | 99° |
| 2026-05-06 04:41 | 40.95444 | -74.48559 | 25226 ft | 419 kts | 100° |
| 2026-05-06 04:41 | 40.95030 | -74.44815 | 24651 ft | 412 kts | 100° |
| 2026-05-06 04:41 | 40.94614 | -74.41077 | 24107 ft | 406 kts | 100° |
| 2026-05-06 04:42 | 40.94205 | -74.37407 | 23576 ft | 400 kts | 100° |
| 2026-05-06 04:42 | 40.93801 | -74.33789 | 22983 ft | 395 kts | 100° |
| 2026-05-06 04:42 | 40.93401 | -74.30223 | 22389 ft | 390 kts | 100° |
| 2026-05-06 04:42 | 40.93009 | -74.26742 | 21798 ft | 385 kts | 101° |
| 2026-05-06 04:43 | 40.92615 | -74.23254 | 21238 ft | 381 kts | 101° |
| 2026-05-06 04:43 | 40.92226 | -74.19813 | 20706 ft | 376 kts | 101° |
| 2026-05-06 04:43 | 40.91828 | -74.16426 | 20226 ft | 369 kts | 105° |
| 2026-05-06 04:43 | 40.90821 | -74.13403 | 19741 ft | 352 kts | 132° |
| 2026-05-06 04:44 | 40.89076 | -74.11261 | 19301 ft | 336 kts | 150° |
| 2026-05-06 04:44 | 40.87138 | -74.09688 | 18867 ft | 328 kts | 156° |
| 2026-05-06 04:44 | 40.85151 | -74.08252 | 18427 ft | 324 kts | 157° |
| 2026-05-06 04:44 | 40.83180 | -74.06830 | 17951 ft | 321 kts | 156° |
| 2026-05-06 04:45 | 40.81252 | -74.05378 | 17507 ft | 316 kts | 155° |
| 2026-05-06 04:45 | 40.79379 | -74.03884 | 17102 ft | 311 kts | 153° |
| 2026-05-06 04:45 | 40.77551 | -74.02398 | 16736 ft | 306 kts | 154° |
| 2026-05-06 04:45 | 40.75747 | -74.00930 | 16363 ft | 308 kts | 150° |
| 2026-05-06 04:46 | 40.74166 | -73.98990 | 16024 ft | 318 kts | 134° |
| 2026-05-06 04:46 | 40.72841 | -73.96680 | 15681 ft | 313 kts | 128° |
| 2026-05-06 04:46 | 40.71620 | -73.94337 | 15332 ft | 307 kts | 128° |
| 2026-05-06 04:46 | 40.70406 | -73.92052 | 14982 ft | 302 kts | 130° |
| 2026-05-06 04:47 | 40.69143 | -73.89852 | 14643 ft | 299 kts | 132° |
| 2026-05-06 04:47 | 40.67857 | -73.87699 | 14323 ft | 300 kts | 132° |
| 2026-05-06 04:47 | 40.66566 | -73.85528 | 13994 ft | 302 kts | 130° |
| 2026-05-06 04:47 | 40.65341 | -73.83265 | 13666 ft | 304 kts | 127° |
| 2026-05-06 04:48 | 40.64190 | -73.80932 | 13303 ft | 302 kts | 126° |
| 2026-05-06 04:48 | 40.63063 | -73.78608 | 12993 ft | 299 kts | 126° |
| 2026-05-06 04:48 | 40.61945 | -73.76349 | 12684 ft | 296 kts | 127° |
| 2026-05-06 04:48 | 40.60800 | -73.74105 | 12364 ft | 295 kts | 127° |
| 2026-05-06 04:49 | 40.59649 | -73.71853 | 12066 ft | 297 kts | 127° |
| 2026-05-06 04:49 | 40.58493 | -73.69589 | 11768 ft | 298 kts | 127° |
| 2026-05-06 04:49 | 40.57332 | -73.67316 | 11475 ft | 299 kts | 127° |
| 2026-05-06 04:49 | 40.56172 | -73.65040 | 11178 ft | 300 kts | 127° |
| 2026-05-06 04:50 | 40.55091 | -73.62697 | 10886 ft | 302 kts | 112° |
| 2026-05-06 04:50 | 40.54839 | -73.60007 | 10606 ft | 303 kts | 81° |
| 2026-05-06 04:50 | 40.55632 | -73.57481 | 10336 ft | 298 kts | 50° |
| 2026-05-06 04:50 | 40.57125 | -73.55642 | 10089 ft | 293 kts | 33° |
| 2026-05-06 04:51 | 40.58810 | -73.54140 | 9802 ft | 291 kts | 30° |
| 2026-05-06 04:51 | 40.60480 | -73.52693 | 9488 ft | 282 kts | 30° |
| 2026-05-06 04:51 | 40.62100 | -73.51284 | 9166 ft | 276 kts | 31° |
| 2026-05-06 04:51 | 40.63640 | -73.49877 | 8840 ft | 270 kts | 32° |
| 2026-05-06 04:52 | 40.65189 | -73.48519 | 8494 ft | 264 kts | 27° |
| 2026-05-06 04:52 | 40.66802 | -73.47321 | 8126 ft | 268 kts | 24° |
| 2026-05-06 04:52 | 40.68512 | -73.46164 | 7784 ft | 282 kts | 22° |
| 2026-05-06 04:52 | 40.70270 | -73.45050 | 7459 ft | 278 kts | 21° |
| 2026-05-06 04:53 | 40.71994 | -73.43976 | 7337 ft | 269 kts | 21° |
| 2026-05-06 04:53 | 40.73718 | -73.42897 | 7087 ft | 277 kts | 21° |
| 2026-05-06 04:53 | 40.75497 | -73.42334 | 6721 ft | 259 kts | 349° |
| 2026-05-06 04:53 | 40.77094 | -73.43106 | 6368 ft | 238 kts | 319° |
| 2026-05-06 04:54 | 40.78314 | -73.44503 | 6001 ft | 229 kts | 307° |
| 2026-05-06 04:54 | 40.79274 | -73.46146 | 5633 ft | 222 kts | 297° |
| 2026-05-06 04:54 | 40.80070 | -73.47872 | 5283 ft | 218 kts | 294° |
| 2026-05-06 04:54 | 40.80808 | -73.49582 | 4952 ft | 212 kts | 293° |
| 2026-05-06 04:55 | 40.81525 | -73.51244 | 4587 ft | 203 kts | 293° |
| 2026-05-06 04:55 | 40.82105 | -73.52832 | 4244 ft | 184 kts | 274° |
| 2026-05-06 04:55 | 40.82007 | -73.54469 | 3647 ft | 179 kts | 256° |
| 2026-05-06 04:55 | 40.81733 | -73.56035 | 3273 ft | 169 kts | 251° |
| 2026-05-06 04:56 | 40.81403 | -73.57433 | 3085 ft | 149 kts | 248° |
| 2026-05-06 04:56 | 40.81087 | -73.58615 | 2976 ft | 124 kts | 247° |
| 2026-05-06 04:56 | 40.80768 | -73.59725 | 2936 ft | 132 kts | 246° |
| 2026-05-06 04:56 | 40.80442 | -73.60860 | 2969 ft | 138 kts | 246° |
| 2026-05-06 04:57 | 40.80115 | -73.62054 | 2991 ft | 140 kts | 247° |
| 2026-05-06 04:57 | 40.79735 | -73.63272 | 2994 ft | 145 kts | 231° |
| 2026-05-06 04:57 | 40.78943 | -73.63975 | 2995 ft | 133 kts | 216° |
| 2026-05-06 04:57 | 40.78152 | -73.64662 | 3006 ft | 140 kts | 217° |
| 2026-05-06 04:58 | 40.77320 | -73.65392 | 2964 ft | 150 kts | 217° |
| 2026-05-06 04:58 | 40.76441 | -73.66120 | 2682 ft | 146 kts | 215° |
| 2026-05-06 04:58 | 40.75610 | -73.66785 | 2517 ft | 133 kts | 214° |
| 2026-05-06 04:58 | 40.74847 | -73.67377 | 2392 ft | 129 kts | 214° |
| 2026-05-06 04:59 | 40.74079 | -73.67984 | 2225 ft | 124 kts | 213° |
| 2026-05-06 04:59 | 40.73382 | -73.68525 | 1987 ft | 108 kts | 213° |
| 2026-05-06 04:59 | 40.72685 | -73.69062 | 1845 ft | 121 kts | 214° |
| 2026-05-06 04:59 | 40.72000 | -73.69611 | 1857 ft | 110 kts | 216° |
| 2026-05-06 05:00 | 40.71342 | -73.70127 | 2000 ft | 102 kts | 214° |
| 2026-05-06 05:00 | 40.70746 | -73.70570 | 1723 ft | 107 kts | 212° |
| 2026-05-06 05:00 | 40.70046 | -73.71119 | 1559 ft | 119 kts | 213° |
| 2026-05-06 05:00 | 40.69334 | -73.71685 | 1287 ft | 117 kts | 212° |
| 2026-05-06 05:01 | 40.68630 | -73.72253 | 1072 ft | 125 kts | 212° |
| 2026-05-06 05:01 | 40.67884 | -73.72847 | 910 ft | 123 kts | 210° |
| 2026-05-06 05:01 | 40.67148 | -73.73431 | 664 ft | 125 kts | 209° |
| 2026-05-06 05:01 | 40.66418 | -73.74013 | 532 ft | 122 kts | 208° |
| 2026-05-06 05:02 | 40.65682 | -73.74585 | 364 ft | 126 kts | 208° |
| 2026-05-06 05:02 | 40.64960 | -73.75150 | 167 ft | 112 kts | 210° |
| 2026-05-06 05:02 | 40.64315 | -73.75659 | 32 ft | 103 kts | 208° |
| 2026-05-06 05:02 | 40.63803 | -73.76050 | 20 ft | 63 kts | 211° |
| 2026-05-06 05:03 | 40.63529 | -73.76264 | 21 ft | 38 kts | 210° |
| 2026-05-06 05:03 | 40.63360 | -73.76403 | 20 ft | 24 kts | 218° |
| 2026-05-06 05:03 | 40.63276 | -73.76548 | 21 ft | 12 kts | 241° |
| 2026-05-06 05:03 | 40.63241 | -73.76632 | 18 ft | 9 kts | 250° |
| 2026-05-06 05:04 | 40.63241 | -73.76716 | 18 ft | 10 kts | 292° |
| 2026-05-06 05:04 | 40.63275 | -73.76798 | 19 ft | 10 kts | 300° |
| 2026-05-06 05:04 | 40.63312 | -73.76881 | 19 ft | 11 kts | 301° |
| 2026-05-06 05:04 | 40.63351 | -73.76964 | 19 ft | 11 kts | 301° |
| 2026-05-06 05:05 | 40.63391 | -73.77053 | 19 ft | 11 kts | 300° |
| 2026-05-06 05:05 | 40.63432 | -73.77144 | 19 ft | 12 kts | 300° |
| 2026-05-06 05:05 | 40.63474 | -73.77237 | 19 ft | 12 kts | 301° |
| 2026-05-06 05:05 | 40.63517 | -73.77331 | 19 ft | 12 kts | 300° |
| 2026-05-06 05:06 | 40.63559 | -73.77424 | 20 ft | 12 kts | 300° |
| 2026-05-06 05:06 | 40.63608 | -73.77532 | 19 ft | 15 kts | 302° |
| 2026-05-06 05:06 | 40.63664 | -73.77640 | 18 ft | 12 kts | 306° |
| 2026-05-06 05:06 | 40.63717 | -73.77664 | 18 ft | 9 kts | 28° |
| 2026-05-06 05:07 | 40.63766 | -73.77667 | 18 ft | 8 kts | 312° |
| 2026-05-06 05:07 | 40.63812 | -73.77718 | 18 ft | 10 kts | 326° |
| 2026-05-06 05:07 | 40.63849 | -73.77751 | 19 ft | 10 kts | 325° |
| 2026-05-06 05:07 | 40.63905 | -73.77802 | 20 ft | 10 kts | 325° |
| 2026-05-06 05:08 | 40.63987 | -73.77867 | 19 ft | 11 kts | 329° |
| 2026-05-06 05:08 | 40.64055 | -73.77881 | 19 ft | 10 kts | 12° |
| 2026-05-06 05:08 | 40.64091 | -73.77850 | 19 ft | 9 kts | 53° |
| 2026-05-06 05:08 | 40.64121 | -73.77783 | 20 ft | 3 kts | 60° |
| 2026-05-06 05:09 | 40.64134 | -73.77768 | 20 ft | 2 kts | 21° |
| 2026-05-06 05:09 | 40.64149 | -73.77765 | 19 ft | 3 kts | 6° |
| 2026-05-06 05:09 | 40.64172 | -73.77763 | 19 ft | 4 kts | 358° |
| 2026-05-06 05:09 | 40.64199 | -73.77769 | 19 ft | 4 kts | 335° |
| 2026-05-06 05:10 | 40.64222 | -73.77798 | 19 ft | 5 kts | 299° |
| 2026-05-06 05:10 | 40.64238 | -73.77836 | 19 ft | 3 kts | 307° |
| 2026-05-06 05:10 | 40.64239 | -73.77839 | 19 ft | 0 kts | 309° |